Detalii statie GENERAL AGRO [00001CEA]

Toti senzorii

Date Temperatura solului [C]Precipitatii [mm]Voltaj baterie [mV]HC Air temperature [C]HC Relative humidity [%]Punctul de roua [C]
medieminmaxsumaultimamedieminmaxmediemediemin
2018-10-13 15:00:00 15.3 15.2 15.5 0 7020 21.26 21.17 21.41 0 0 0
2018-10-13 15:30:00 15.5 15.5 15.5 0 6962 21.33 21.16 21.46 0 0 0
2018-10-13 16:00:00 15.5 15.5 15.6 0 6962 21.1 20.99 21.31 0 0 0
2018-10-13 16:30:00 15.5 15.5 15.7 0 6922 20.52 20.24 20.8 0 0 0
2018-10-13 17:00:00 15.4 15.4 15.5 0 6914 19.32 18.48 20.05 0 0 0
2018-10-13 17:30:00 15.3 15.2 15.4 0 6884 17.04 16.12 18.19 0 0 0
2018-10-13 18:00:00 15.1 15 15.3 0 6884 14.57 13.76 15.73 0 0 0
2018-10-13 18:30:00 14.9 14.8 15 0 6864 12.99 12.26 13.8 0 0 0
2018-10-13 19:00:00 14.6 14.5 14.8 0 6874 13.09 12.71 13.62 0 0 0
2018-10-13 19:30:00 14.4 14.3 14.6 0 6854 12.62 11.72 13.21 0 0 0
2018-10-13 20:00:00 14.2 14.1 14.4 0 6864 10.7 10.22 11.33 0 0 0
2018-10-13 20:30:00 13.9 13.7 14.1 0 6834 10.52 10.45 10.58 0 0 0
2018-10-13 21:00:00 13.8 13.6 14 0 6844 9.88 9.33 10.48 0 0 0
2018-10-13 21:30:00 13.6 13.5 13.7 0 6816 9.47 9.24 9.73 0 0 0
2018-10-13 22:00:00 13.4 13.3 13.6 0 6826 9.08 8.96 9.37 0 0 0
2018-10-13 22:30:00 13.2 13.2 13.4 0 6816 9 8.58 9.45 0 0 0
2018-10-13 23:00:00 12.9 12.8 13.1 0 6826 8.27 8.13 8.42 0 0 0
2018-10-13 23:30:00 12.6 12.6 12.7 0 6796 8.5 8.4 8.6 0 0 0
2018-10-14 00:00:00 12.5 12.4 12.7 0 6806 8.35 8.16 8.66 0 0 0
2018-10-14 00:30:00 12.3 12.2 12.4 0 6786 8.62 8.34 8.92 0 0 0
2018-10-14 01:00:00 12.1 12.1 12.3 0 6796 8.07 7.98 8.22 0 0 0
2018-10-14 01:30:00 12 11.9 12.1 0 6776 7.76 7.31 8.09 0 0 0
2018-10-14 02:00:00 11.8 11.8 12 0 6796 7.79 7.54 7.98 0 0 0
2018-10-14 02:30:00 11.7 11.7 11.8 0 6766 7.51 7.37 7.7 0 0 0
2018-10-14 03:00:00 11.6 11.4 11.9 0 6786 7.04 6.92 7.3 0 0 0
2018-10-14 03:30:00 11.4 11.4 11.6 0 6766 7.03 6.85 7.28 0 0 0
2018-10-14 04:00:00 11.4 11.3 11.5 0 6756 7.03 6.87 7.3 0 0 0
2018-10-14 04:30:00 11.2 11.2 11.5 0 6748 6.64 6.51 6.87 0 0 0
2018-10-14 05:00:00 11.1 11 11.2 0 6756 6.41 6.26 6.59 0 0 0
2018-10-14 05:30:00 11 11 11.1 0 6738 6.03 5.78 6.33 0 0 0
2018-10-14 06:00:00 10.9 10.9 11.1 0 6756 5.58 5.42 5.78 0 0 0
2018-10-14 06:30:00 10.8 10.7 10.9 0 6738 5.59 5.48 5.72 0 0 0
2018-10-14 07:00:00 10.7 10.6 11 0 6776 6.21 5.7 6.73 0 0 0
2018-10-14 07:30:00 10.7 10.7 10.7 0 6844 6.84 6.68 7.13 0 0 0
2018-10-14 08:00:00 10.6 10.6 10.7 0 7098 7.76 7.27 8.12 0 0 0
2018-10-14 08:30:00 10.7 10.6 10.8 0 7158 8.36 7.99 8.86 0 0 0
2018-10-14 09:00:00 10.8 10.8 10.9 0 7158 10.08 9.21 10.69 0 0 0
2018-10-14 09:30:00 10.9 10.9 11.1 0 7158 11.89 11.11 12.47 0 0 0
2018-10-14 10:00:00 11.3 11.1 11.5 0 7148 13.53 12.9 14.33 0 0 0
2018-10-14 10:30:00 11.5 11.4 11.7 0 7148 15.7 15.02 16.46 0 0 0
2018-10-14 11:00:00 11.8 11.8 12 0 7148 17.22 16.59 18.03 0 0 0
2018-10-14 11:30:00 12.2 12.1 12.5 0 7138 19.03 18.09 19.98 0 0 0
2018-10-14 12:00:00 12.7 12.4 13 0 7148 19.89 19.5 20.23 0 0 0
2018-10-14 12:30:00 13.2 12.9 13.5 0 7148 20.64 20.16 20.92 0 0 0
2018-10-14 13:00:00 13.7 13.6 13.9 0 7138 21.31 20.93 21.68 0 0 0
2018-10-14 13:30:00 14 13.9 14.2 0 7138 21.82 21.49 22.28 0 0 0
2018-10-14 14:00:00 14.3 14.2 14.4 0 7098 22.18 21.94 22.46 0 0 0
2018-10-14 14:30:00 14.6 14.5 14.8 0 7020 22.25 21.99 22.44 0 0 0